Time;durP1;ratioP1;P1;durP2;ratioP2;P2;SDS_P1;SDS_P2;PMS_P1;PMS_P2;Temp;Humidity;BMP_temperature;BMP_pressure;BME280_temperature;BME280_humidity;BME280_pressure;Samples;Min_cycle;Max_cycle;Signal;HPM_P1;HPM_P2
2021/03/17 00:00:06;;;;;;;6.77;3.73;;;4.20;99.70;;;;;;5049419;28;20459;-71
2021/03/17 00:02:32;;;;;;;7.00;3.70;;;4.40;99.70;;;;;;5049695;28;20451;-72
2021/03/17 00:04:58;;;;;;;6.63;3.73;;;4.20;99.70;;;;;;5049033;28;20487;-71
2021/03/17 00:07:24;;;;;;;6.43;3.50;;;4.50;99.70;;;;;;5049191;28;20489;-71
2021/03/17 00:09:51;;;;;;;13.07;5.30;;;4.30;99.70;;;;;;5049376;28;20443;-71
2021/03/17 00:12:17;;;;;;;16.23;5.53;;;4.30;99.70;;;;;;5049528;28;20451;-71
2021/03/17 00:14:43;;;;;;;11.07;4.87;;;4.20;99.70;;;;;;5048601;28;20850;-71
2021/03/17 00:17:10;;;;;;;8.93;4.30;;;4.20;99.70;;;;;;5048939;28;20444;-71
2021/03/17 00:19:36;;;;;;;7.03;3.70;;;4.10;99.70;;;;;;5049460;28;20447;-73
2021/03/17 00:22:02;;;;;;;6.43;3.60;;;4.10;99.70;;;;;;5049354;28;20447;-72
2021/03/17 00:24:30;;;;;;;6.53;3.30;;;4.10;99.70;;;;;;5049056;28;20467;-72
2021/03/17 00:26:57;;;;;;;8.10;4.23;;;4.10;99.70;;;;;;5048656;28;20526;-73
2021/03/17 00:29:23;;;;;;;8.33;4.07;;;4.10;99.70;;;;;;5049437;28;20451;-72
2021/03/17 00:31:49;;;;;;;6.30;3.53;;;4.20;99.70;;;;;;5049408;28;20439;-72
2021/03/17 00:34:16;;;;;;;6.20;3.40;;;4.10;99.70;;;;;;5049001;28;20988;-72
2021/03/17 00:36:42;;;;;;;5.43;3.60;;;4.10;99.70;;;;;;5048455;28;20960;-71
2021/03/17 00:39:08;;;;;;;7.30;3.60;;;4.10;99.70;;;;;;5048209;28;20444;-71
2021/03/17 00:41:34;;;;;;;7.27;3.77;;;4.10;99.70;;;;;;5049369;28;20811;-73
2021/03/17 00:44:01;;;;;;;6.50;3.67;;;4.30;99.70;;;;;;5049311;28;20464;-72
2021/03/17 00:46:27;;;;;;;5.47;3.50;;;4.20;99.70;;;;;;5048925;28;20937;-72
2021/03/17 00:48:54;;;;;;;5.73;3.27;;;4.10;99.70;;;;;;5049049;28;20463;-72
2021/03/17 00:51:20;;;;;;;5.40;3.30;;;4.20;99.70;;;;;;5049614;28;20872;-73
2021/03/17 00:53:46;;;;;;;7.10;3.47;;;4.30;99.70;;;;;;5049189;28;20467;-72
2021/03/17 00:56:12;;;;;;;7.37;4.10;;;4.30;99.70;;;;;;5048638;28;20486;-72
2021/03/17 00:58:38;;;;;;;7.67;3.80;;;4.30;99.70;;;;;;5048779;28;20455;-72
2021/03/17 01:01:05;;;;;;;7.50;4.00;;;4.40;99.70;;;;;;5048898;28;20456;-72
2021/03/17 01:03:32;;;;;;;8.20;4.07;;;4.30;99.70;;;;;;5049253;28;20448;-72
2021/03/17 01:05:58;;;;;;;8.93;4.10;;;4.30;99.70;;;;;;5048502;28;20818;-73
2021/03/17 01:08:24;;;;;;;8.43;4.07;;;4.40;99.70;;;;;;5048659;28;20447;-72
2021/03/17 01:10:50;;;;;;;6.70;3.77;;;4.30;99.70;;;;;;5048819;28;20497;-72
2021/03/17 01:13:17;;;;;;;7.20;4.07;;;4.40;99.70;;;;;;5049042;28;20447;-72
2021/03/17 01:15:44;;;;;;;7.97;4.07;;;4.40;99.70;;;;;;5048047;28;20483;-72
2021/03/17 01:18:12;;;;;;;7.73;4.00;;;4.50;99.70;;;;;;5048410;28;20452;-72
2021/03/17 01:20:41;;;;;;;10.50;4.73;;;4.70;99.70;;;;;;5048623;28;20876;-72
2021/03/17 01:23:08;;;;;;;7.10;4.20;;;4.50;99.70;;;;;;5048797;28;20440;-72
2021/03/17 01:25:36;;;;;;;6.90;3.60;;;4.40;99.70;;;;;;5048021;28;20455;-72
2021/03/17 01:28:04;;;;;;;6.37;4.00;;;4.70;99.70;;;;;;5051332;28;20444;-72
2021/03/17 01:30:33;;;;;;;7.77;3.83;;;4.50;99.70;;;;;;5052190;28;20444;-72
2021/03/17 01:33:00;;;;;;;7.80;3.97;;;4.50;99.70;;;;;;5052188;28;20980;-72
2021/03/17 01:35:27;;;;;;;7.90;4.00;;;4.40;99.70;;;;;;5051421;28;20483;-72
2021/03/17 01:37:53;;;;;;;8.70;4.00;;;4.50;99.70;;;;;;5051889;28;20443;-72
2021/03/17 01:40:22;;;;;;;7.50;3.93;;;4.50;99.70;;;;;;5050763;28;20455;-72
2021/03/17 01:42:48;;;;;;;8.90;4.40;;;4.40;99.70;;;;;;5052116;28;20501;-73
2021/03/17 01:45:16;;;;;;;10.87;4.23;;;4.50;99.70;;;;;;5051326;28;20464;-73
2021/03/17 01:47:44;;;;;;;7.10;3.93;;;4.40;99.70;;;;;;5051588;28;20500;-72
2021/03/17 01:50:13;;;;;;;7.00;4.00;;;4.30;99.70;;;;;;5051488;28;20440;-72
2021/03/17 01:52:40;;;;;;;9.27;4.43;;;4.30;99.70;;;;;;5051870;28;20446;-72
2021/03/17 01:55:07;;;;;;;11.10;5.47;;;4.50;99.70;;;;;;5051000;28;20479;-72
2021/03/17 01:57:34;;;;;;;10.73;5.27;;;4.20;99.70;;;;;;5051530;28;20953;-72
2021/03/17 02:00:01;;;;;;;12.70;6.73;;;4.10;99.70;;;;;;5054115;28;20451;-72
2021/03/17 02:02:28;;;;;;;13.37;6.10;;;4.00;99.70;;;;;;5052584;28;20448;-72
2021/03/17 02:04:54;;;;;;;12.77;5.83;;;4.10;99.70;;;;;;5051029;28;20475;-72
2021/03/17 02:07:20;;;;;;;10.70;5.80;;;4.30;99.70;;;;;;5051372;28;20448;-72
2021/03/17 02:09:48;;;;;;;10.90;6.30;;;4.30;99.70;;;;;;5051465;28;20451;-72
2021/03/17 02:12:26;;;;;;;10.27;5.27;;;4.30;99.70;;;;;;5051479;28;20501;-72
2021/03/17 02:15:05;;;;;;;13.27;5.97;;;4.40;99.70;;;;;;5050692;28;20471;-71
2021/03/17 02:17:34;;;;;;;14.40;6.13;;;4.40;99.70;;;;;;5051145;28;20470;-72
2021/03/17 02:20:36;;;;;;;12.77;6.07;;;4.50;99.70;;;;;;5051447;28;20448;-72
2021/03/17 02:23:10;;;;;;;14.00;6.07;;;4.30;99.70;;;;;;5051303;28;20448;-72
2021/03/17 02:26:07;;;;;;;12.43;6.17;;;4.30;99.70;;;;;;5050565;28;20463;-73
2021/03/17 02:28:49;;;;;;;12.73;5.63;;;4.10;99.70;;;;;;5050967;28;20444;-72
2021/03/17 02:31:39;;;;;;;10.97;5.23;;;4.10;99.70;;;;;;5051197;28;20497;-73
2021/03/17 02:34:09;;;;;;;11.40;5.60;;;4.10;99.70;;;;;;5050955;28;20476;-72
2021/03/17 02:36:41;;;;;;;14.13;6.20;;;4.40;99.70;;;;;;5050290;28;20479;-71
2021/03/17 02:39:12;;;;;;;11.00;5.00;;;4.40;99.70;;;;;;5049389;28;20527;-72
2021/03/17 02:41:44;;;;;;;12.60;5.70;;;4.20;99.70;;;;;;5050840;28;20882;-73
2021/03/17 02:44:14;;;;;;;11.00;5.27;;;4.20;99.70;;;;;;5050859;28;20456;-72
2021/03/17 02:46:42;;;;;;;11.47;5.67;;;4.20;99.70;;;;;;5050278;28;20490;-73
2021/03/17 02:49:13;;;;;;;12.13;5.90;;;4.40;99.70;;;;;;5050805;28;20882;-72
2021/03/17 02:51:43;;;;;;;12.37;5.50;;;4.20;99.70;;;;;;5050748;28;20440;-73
2021/03/17 02:54:12;;;;;;;11.73;4.83;;;4.20;99.70;;;;;;5050548;28;20467;-72
2021/03/17 02:56:42;;;;;;;11.60;5.50;;;4.20;99.70;;;;;;5049922;28;20888;-72
2021/03/17 02:59:09;;;;;;;11.77;5.50;;;4.20;99.70;;;;;;5050754;28;20874;-72
2021/03/17 03:01:37;;;;;;;10.70;5.47;;;4.30;99.70;;;;;;5050522;28;20455;-72
2021/03/17 03:04:06;;;;;;;11.70;5.47;;;4.10;99.70;;;;;;5050174;28;20475;-72
2021/03/17 03:06:34;;;;;;;10.97;5.30;;;4.10;99.70;;;;;;5049843;28;20436;-73
2021/03/17 03:09:01;;;;;;;11.63;5.30;;;4.10;99.70;;;;;;5050145;28;20505;-73
2021/03/17 03:11:28;;;;;;;8.43;4.77;;;4.30;99.70;;;;;;5050193;28;20439;-73
2021/03/17 03:13:56;;;;;;;10.23;5.10;;;4.20;99.70;;;;;;5050245;28;20493;-72
2021/03/17 03:16:24;;;;;;;10.80;5.70;;;4.20;99.70;;;;;;5049608;28;20760;-73
2021/03/17 03:18:53;;;;;;;10.27;4.90;;;4.20;99.70;;;;;;5049937;28;20444;-72
2021/03/17 03:21:20;;;;;;;8.50;4.90;;;4.30;99.70;;;;;;5050111;28;20451;-72
2021/03/17 03:23:48;;;;;;;10.90;5.20;;;4.20;99.70;;;;;;5049939;28;20464;-72
2021/03/17 03:26:17;;;;;;;10.63;4.90;;;4.20;99.70;;;;;;5049413;28;20507;-72
2021/03/17 03:28:44;;;;;;;10.57;5.40;;;4.10;99.70;;;;;;5049891;28;20455;-72
2021/03/17 03:31:10;;;;;;;10.27;4.93;;;4.20;99.70;;;;;;5050060;28;20447;-72
2021/03/17 03:33:37;;;;;;;10.63;5.30;;;4.30;99.70;;;;;;5050159;28;20471;-72
2021/03/17 03:36:03;;;;;;;8.53;4.80;;;4.00;99.70;;;;;;5049246;28;20505;-72
2021/03/17 03:38:30;;;;;;;9.20;5.00;;;4.00;99.70;;;;;;5049355;28;20836;-72
2021/03/17 03:40:57;;;;;;;11.87;5.20;;;4.00;99.70;;;;;;5048746;28;20448;-72
2021/03/17 03:43:23;;;;;;;10.20;5.50;;;3.80;99.70;;;;;;5049605;28;20824;-71
2021/03/17 03:45:50;;;;;;;9.63;4.67;;;3.90;99.70;;;;;;5049240;28;20444;-71
2021/03/17 03:48:17;;;;;;;10.90;5.03;;;3.90;99.70;;;;;;5049295;28;20448;-70
2021/03/17 03:50:45;;;;;;;12.30;5.37;;;3.80;99.70;;;;;;5048895;28;20478;-71
2021/03/17 03:53:22;;;;;;;10.33;4.53;;;3.90;99.70;;;;;;5049591;28;20444;-72
2021/03/17 03:55:52;;;;;;;9.03;5.20;;;4.00;99.70;;;;;;5049150;28;20901;-71
2021/03/17 03:58:27;;;;;;;9.50;5.10;;;3.90;99.70;;;;;;5049270;28;20443;-71
2021/03/17 04:00:57;;;;;;;8.93;4.33;;;3.90;99.70;;;;;;5049557;28;20454;-71
2021/03/17 04:03:24;;;;;;;10.87;5.03;;;3.90;99.70;;;;;;5049525;28;20471;-71
2021/03/17 04:05:54;;;;;;;9.73;5.10;;;3.90;99.70;;;;;;5049067;28;20439;-71
2021/03/17 04:08:22;;;;;;;10.57;5.40;;;4.00;99.70;;;;;;5049066;28;20823;-71
2021/03/17 04:10:55;;;;;;;13.23;5.53;;;3.80;99.70;;;;;;5049415;28;20444;-72
2021/03/17 04:13:24;;;;;;;10.10;4.93;;;3.60;99.70;;;;;;5049434;28;20445;-71
2021/03/17 04:15:55;;;;;;;10.80;5.80;;;3.60;99.70;;;;;;5048724;28;21058;-71
2021/03/17 04:18:23;;;;;;;11.00;5.97;;;3.60;99.70;;;;;;5049028;28;20448;-71
2021/03/17 04:20:53;;;;;;;11.60;5.33;;;3.60;99.70;;;;;;5049348;28;20474;-71
2021/03/17 04:23:22;;;;;;;11.00;5.13;;;3.40;99.70;;;;;;5049262;28;20447;-71
2021/03/17 04:25:51;;;;;;;13.40;6.07;;;3.60;99.70;;;;;;5048770;28;20972;-72
2021/03/17 04:28:19;;;;;;;11.80;5.77;;;3.70;99.70;;;;;;5048896;28;20443;-72
2021/03/17 04:30:47;;;;;;;14.57;6.37;;;3.70;99.70;;;;;;5049321;28;20436;-71
2021/03/17 04:33:15;;;;;;;11.57;5.50;;;3.80;99.70;;;;;;5049164;28;20531;-71
2021/03/17 04:35:42;;;;;;;11.17;5.90;;;3.80;99.70;;;;;;5048720;28;20506;-71
2021/03/17 04:38:09;;;;;;;14.73;6.43;;;3.80;99.70;;;;;;5048863;28;20834;-71
2021/03/17 04:40:36;;;;;;;10.17;4.90;;;4.00;99.70;;;;;;5047917;28;20440;-71
2021/03/17 04:43:03;;;;;;;14.63;6.57;;;3.90;99.70;;;;;;5049143;28;20485;-71
2021/03/17 04:45:30;;;;;;;12.53;6.40;;;3.90;99.70;;;;;;5048758;28;20456;-71
2021/03/17 04:47:59;;;;;;;12.40;6.33;;;3.90;99.70;;;;;;5049205;28;20466;-71
2021/03/17 04:50:27;;;;;;;14.10;6.40;;;3.80;99.70;;;;;;5049125;28;20439;-72
2021/03/17 04:52:53;;;;;;;13.60;6.63;;;3.80;99.70;;;;;;5049181;28;20455;-72
2021/03/17 04:55:20;;;;;;;15.40;6.80;;;3.80;99.70;;;;;;5048519;28;20468;-73
2021/03/17 04:57:48;;;;;;;14.30;7.00;;;3.70;99.70;;;;;;5048611;28;20454;-72
2021/03/17 05:00:16;;;;;;;15.00;6.70;;;3.80;99.70;;;;;;5049465;28;20451;-73
2021/03/17 05:02:48;;;;;;;15.50;7.10;;;3.90;99.70;;;;;;5052827;28;20801;-72
2021/03/17 05:05:16;;;;;;;13.43;7.07;;;3.80;99.70;;;;;;5053379;28;20503;-72
2021/03/17 05:07:44;;;;;;;13.77;7.13;;;3.90;99.70;;;;;;5052400;28;20490;-72
2021/03/17 05:10:11;;;;;;;15.50;7.20;;;3.90;99.70;;;;;;5052574;28;20497;-72
2021/03/17 05:12:39;;;;;;;14.00;7.13;;;3.90;99.70;;;;;;5052623;28;20454;-72
2021/03/17 05:15:07;;;;;;;16.97;7.23;;;3.90;99.70;;;;;;5051756;28;20463;-72
2021/03/17 05:17:34;;;;;;;15.77;7.03;;;3.70;99.70;;;;;;5052180;28;20455;-72
2021/03/17 05:20:01;;;;;;;17.60;8.00;;;3.70;99.70;;;;;;5052590;28;20439;-72
2021/03/17 05:22:30;;;;;;;12.90;6.60;;;3.70;99.70;;;;;;5052325;28;20862;-73
2021/03/17 05:24:57;;;;;;;18.00;8.20;;;3.60;99.70;;;;;;5051771;28;20463;-72
2021/03/17 05:27:28;;;;;;;16.40;7.37;;;3.70;99.70;;;;;;5051996;28;20440;-73
2021/03/17 05:29:56;;;;;;;15.77;7.53;;;3.80;99.70;;;;;;5052291;28;20444;-72
2021/03/17 05:32:24;;;;;;;30.37;12.60;;;3.80;99.70;;;;;;5052054;28;20504;-72
2021/03/17 05:34:56;;;;;;;17.90;8.47;;;3.70;99.70;;;;;;5052016;28;20487;-72
2021/03/17 05:37:22;;;;;;;16.50;7.97;;;3.90;99.70;;;;;;5051758;28;20509;-72
2021/03/17 05:39:49;;;;;;;18.57;9.07;;;4.00;99.70;;;;;;5050704;28;20443;-72
2021/03/17 05:42:16;;;;;;;17.87;8.50;;;3.90;99.70;;;;;;5052094;28;20444;-70
2021/03/17 05:44:42;;;;;;;18.50;8.57;;;3.80;99.70;;;;;;5051753;28;20524;-70
2021/03/17 05:47:10;;;;;;;20.43;10.30;;;3.70;99.70;;;;;;5051162;28;20882;-72
2021/03/17 05:49:37;;;;;;;17.90;8.70;;;3.80;99.70;;;;;;5052045;28;20440;-72
2021/03/17 05:52:04;;;;;;;18.50;8.37;;;3.80;99.70;;;;;;5052061;28;20828;-72
2021/03/17 05:54:31;;;;;;;18.27;8.50;;;3.80;99.70;;;;;;5051652;28;20562;-72
2021/03/17 05:57:00;;;;;;;19.00;8.97;;;3.80;99.70;;;;;;5051167;28;20574;-72
2021/03/17 05:59:27;;;;;;;20.43;9.20;;;3.80;99.70;;;;;;5051879;28;20497;-71
2021/03/17 06:01:54;;;;;;;19.47;9.00;;;3.90;99.70;;;;;;5051890;28;20451;-72
2021/03/17 06:04:21;;;;;;;23.47;9.00;;;3.90;99.70;;;;;;5051337;28;20475;-72
2021/03/17 06:06:50;;;;;;;16.60;8.40;;;3.90;99.70;;;;;;5050886;28;20444;-72
2021/03/17 06:09:19;;;;;;;20.03;9.60;;;3.80;99.70;;;;;;5051585;28;20447;-72
2021/03/17 06:11:49;;;;;;;21.43;9.60;;;3.90;99.70;;;;;;5051005;28;20447;-72
2021/03/17 06:14:19;;;;;;;20.70;9.47;;;3.70;99.70;;;;;;5051284;28;20463;-72
2021/03/17 06:16:46;;;;;;;24.40;10.63;;;3.90;99.70;;;;;;5050526;28;20488;-72
2021/03/17 06:19:14;;;;;;;21.73;9.50;;;3.90;99.70;;;;;;5051352;28;20447;-72
2021/03/17 06:21:42;;;;;;;24.00;10.13;;;3.90;99.70;;;;;;5051801;28;20455;-72
2021/03/17 06:24:10;;;;;;;28.03;11.23;;;4.00;99.70;;;;;;5051449;28;20546;-73
2021/03/17 06:26:38;;;;;;;24.73;11.50;;;4.10;99.70;;;;;;5050815;28;20436;-72
2021/03/17 06:29:04;;;;;;;28.00;11.00;;;3.90;99.70;;;;;;5051214;28;20443;-72
2021/03/17 06:31:32;;;;;;;23.57;10.70;;;4.00;99.70;;;;;;5051511;28;20453;-72
2021/03/17 06:33:58;;;;;;;24.80;10.37;;;4.00;99.70;;;;;;5051147;28;20468;-72
2021/03/17 06:36:26;;;;;;;24.70;10.80;;;4.00;99.70;;;;;;5050513;28;20612;-73
2021/03/17 06:39:06;;;;;;;25.57;11.47;;;3.90;99.70;;;;;;5050000;28;20866;-72
2021/03/17 06:41:44;;;;;;;24.43;10.70;;;3.80;99.70;;;;;;5051033;28;20466;-72
2021/03/17 06:44:10;;;;;;;24.10;10.07;;;3.90;99.70;;;;;;5050697;28;21015;-72
2021/03/17 06:46:37;;;;;;;23.50;10.73;;;3.80;99.70;;;;;;5050215;28;20470;-72
2021/03/17 06:49:05;;;;;;;23.93;10.63;;;3.80;99.70;;;;;;5050201;28;20452;-72
2021/03/17 06:51:32;;;;;;;27.77;10.40;;;3.80;99.70;;;;;;5050655;28;20451;-72
2021/03/17 06:53:59;;;;;;;24.97;10.43;;;3.90;99.70;;;;;;5048372;28;20471;-70
2021/03/17 06:56:27;;;;;;;28.77;12.03;;;3.80;99.70;;;;;;5048939;28;20988;-72
2021/03/17 06:58:55;;;;;;;28.53;11.97;;;3.80;99.70;;;;;;5048610;28;20439;-71
2021/03/17 07:01:26;;;;;;;29.00;11.70;;;3.90;99.70;;;;;;5051226;28;20949;-71
2021/03/17 07:03:54;;;;;;;27.90;11.50;;;3.80;99.70;;;;;;5050228;28;20476;-69
2021/03/17 07:06:21;;;;;;;25.47;10.33;;;3.80;99.70;;;;;;5047861;28;20880;-70
2021/03/17 07:08:47;;;;;;;25.03;11.43;;;3.80;99.70;;;;;;5040986;28;20444;-71
2021/03/17 07:11:22;;;;;;;29.13;12.27;;;3.90;99.70;;;;;;5034985;28;20463;-71
2021/03/17 07:13:57;;;;;;;28.07;12.03;;;3.90;99.70;;;;;;5046451;28;20836;-71
2021/03/17 07:16:31;;;;;;;28.83;12.20;;;4.10;99.70;;;;;;5045003;28;20493;-71
2021/03/17 07:18:58;;;;;;;26.07;11.10;;;4.00;99.70;;;;;;5048921;28;20518;-70
2021/03/17 07:21:36;;;;;;;30.90;12.00;;;3.90;99.70;;;;;;5048299;28;20482;-70
2021/03/17 07:24:05;;;;;;;32.33;11.87;;;4.00;99.70;;;;;;5047106;28;20490;-71
2021/03/17 07:26:32;;;;;;;31.43;12.63;;;4.10;99.70;;;;;;5047933;28;20436;-70
2021/03/17 07:29:13;;;;;;;32.27;12.97;;;4.00;99.70;;;;;;5045091;28;20463;-70
2021/03/17 07:31:44;;;;;;;30.13;12.50;;;4.10;99.70;;;;;;5062640;28;20506;-71
2021/03/17 07:34:14;;;;;;;30.47;11.53;;;4.10;99.70;;;;;;5049779;28;20837;-69
2021/03/17 07:36:45;;;;;;;28.23;11.73;;;4.30;99.70;;;;;;5048797;28;20487;-69
2021/03/17 07:39:14;;;;;;;32.80;13.13;;;4.30;99.70;;;;;;5049382;28;20781;-70
2021/03/17 07:41:40;;;;;;;30.23;12.23;;;4.60;99.70;;;;;;5046798;28;20497;-68
2021/03/17 07:44:10;;;;;;;32.43;13.00;;;4.50;99.70;;;;;;5049537;28;20479;-70
2021/03/17 07:46:38;;;;;;;30.60;12.97;;;4.50;99.70;;;;;;5029094;28;20456;-70
2021/03/17 07:49:06;;;;;;;32.10;12.87;;;4.50;99.70;;;;;;5028467;28;21129;-70
2021/03/17 07:51:36;;;;;;;30.47;12.90;;;4.50;99.70;;;;;;5029500;28;20441;-69
2021/03/17 07:54:06;;;;;;;27.47;11.60;;;4.70;99.70;;;;;;5028582;28;20468;-70
2021/03/17 07:56:34;;;;;;;29.40;12.73;;;4.70;99.70;;;;;;5028478;28;20493;-71
2021/03/17 07:59:01;;;;;;;29.77;12.60;;;4.70;99.70;;;;;;5028013;28;20452;-71
2021/03/17 08:01:28;;;;;;;32.67;12.60;;;4.70;99.70;;;;;;5028506;28;20625;-71
2021/03/17 08:03:55;;;;;;;27.60;12.00;;;4.70;99.70;;;;;;5028897;28;20483;-71
2021/03/17 08:06:22;;;;;;;28.43;12.00;;;4.80;99.70;;;;;;5027567;28;20437;-70
2021/03/17 08:08:49;;;;;;;28.70;12.53;;;5.00;99.70;;;;;;5028640;28;20452;-71
2021/03/17 08:11:18;;;;;;;28.80;12.53;;;5.10;99.70;;;;;;5034050;28;20458;-70
2021/03/17 08:13:47;;;;;;;29.33;12.47;;;5.10;99.70;;;;;;5047677;28;20738;-71
2021/03/17 08:16:17;;;;;;;22.27;10.63;;;5.10;99.70;;;;;;5047530;28;20533;-71
2021/03/17 08:18:45;;;;;;;26.63;10.10;;;5.10;99.70;;;;;;5047023;28;20440;-71
2021/03/17 08:21:12;;;;;;;24.30;11.50;;;5.00;99.70;;;;;;5048035;28;20455;-71
2021/03/17 08:23:40;;;;;;;27.10;11.33;;;5.10;99.70;;;;;;5048414;28;20482;-71
2021/03/17 08:26:08;;;;;;;23.20;10.60;;;5.20;99.70;;;;;;5046894;28;20945;-70
2021/03/17 08:28:47;;;;;;;27.30;11.03;;;5.10;99.70;;;;;;5048079;28;20448;-71
2021/03/17 08:31:49;;;;;;;24.83;10.60;;;5.00;99.70;;;;;;5047610;28;20762;-71
2021/03/17 08:34:27;;;;;;;23.53;10.03;;;5.00;99.70;;;;;;5032025;28;20491;-71
2021/03/17 08:36:56;;;;;;;24.57;10.87;;;5.10;99.70;;;;;;5049817;28;20540;-71
2021/03/17 08:39:41;;;;;;;23.43;9.70;;;5.30;99.70;;;;;;5051170;28;20455;-71
2021/03/17 08:42:09;;;;;;;23.80;10.43;;;5.60;99.70;;;;;;5051632;28;20497;-71
2021/03/17 08:44:49;;;;;;;19.60;8.87;;;6.00;99.70;;;;;;5052019;28;20541;-71
2021/03/17 08:47:21;;;;;;;18.60;8.53;;;6.60;99.70;;;;;;5051064;28;20446;-71
2021/03/17 08:49:50;;;;;;;18.80;8.57;;;7.40;99.70;;;;;;5051630;28;20478;-71
2021/03/17 08:52:18;;;;;;;20.20;9.03;;;7.40;99.70;;;;;;5051931;28;20448;-70
2021/03/17 08:55:05;;;;;;;19.20;9.40;;;7.10;99.70;;;;;;5051136;28;20467;-71
2021/03/17 08:57:50;;;;;;;17.07;8.50;;;6.70;99.70;;;;;;5051639;28;20483;-71
2021/03/17 09:00:42;;;;;;;17.90;8.20;;;6.40;99.70;;;;;;5051037;28;20959;-70
2021/03/17 09:03:08;;;;;;;19.60;8.40;;;6.20;99.70;;;;;;5051875;28;20539;-70
2021/03/17 09:05:35;;;;;;;17.07;8.40;;;6.20;99.70;;;;;;5050674;28;20752;-71
2021/03/17 09:08:05;;;;;;;19.17;8.30;;;6.20;99.70;;;;;;5051324;28;20489;-71
2021/03/17 09:10:45;;;;;;;15.73;7.70;;;6.00;99.70;;;;;;5051749;28;20546;-70
2021/03/17 09:13:13;;;;;;;15.70;7.07;;;6.00;99.70;;;;;;5050945;28;20509;-71
2021/03/17 09:15:45;;;;;;;15.47;6.90;;;6.30;99.70;;;;;;5051242;28;20439;-71
2021/03/17 09:18:11;;;;;;;12.40;5.70;;;6.50;99.70;;;;;;5050721;28;20502;-71
2021/03/17 09:20:41;;;;;;;10.93;5.40;;;6.40;99.70;;;;;;5051172;28;20448;-71
2021/03/17 09:23:15;;;;;;;13.47;6.13;;;6.30;99.70;;;;;;5050274;28;20456;-71
2021/03/17 09:25:46;;;;;;;17.27;7.93;;;6.20;99.70;;;;;;5048120;28;20447;-72
2021/03/17 09:28:20;;;;;;;13.37;6.50;;;6.70;99.70;;;;;;5049846;28;20448;-71
2021/03/17 09:30:52;;;;;;;13.30;6.27;;;7.60;99.70;;;;;;5050538;28;20509;-71
2021/03/17 09:33:20;;;;;;;14.20;7.20;;;7.60;99.70;;;;;;5051211;28;20447;-71
2021/03/17 09:35:50;;;;;;;14.87;6.93;;;8.00;99.70;;;;;;5048322;28;20799;-72
2021/03/17 09:38:17;;;;;;;14.30;6.53;;;8.30;99.70;;;;;;5049264;28;20455;-71
2021/03/17 09:40:48;;;;;;;10.13;6.07;;;8.40;99.70;;;;;;5049917;28;20439;-70
2021/03/17 09:43:26;;;;;;;13.90;6.90;;;8.50;99.70;;;;;;5050153;28;20933;-70
2021/03/17 09:45:53;;;;;;;9.60;5.43;;;8.30;99.70;;;;;;5050348;28;20505;-71
2021/03/17 09:48:20;;;;;;;9.00;4.63;;;8.00;99.70;;;;;;5047923;28;20452;-72
2021/03/17 09:50:47;;;;;;;9.47;5.60;;;8.00;99.70;;;;;;5050878;28;20444;-71
2021/03/17 09:53:15;;;;;;;10.70;5.10;;;7.60;99.70;;;;;;5050748;28;20457;-72
2021/03/17 09:55:41;;;;;;;9.50;4.80;;;7.40;99.00;;;;;;5049243;28;20440;-71
2021/03/17 09:58:08;;;;;;;9.70;4.67;;;7.00;99.20;;;;;;5050337;28;20444;-71
2021/03/17 10:00:36;;;;;;;10.13;5.47;;;6.90;99.70;;;;;;5050002;28;20452;-71
2021/03/17 10:03:05;;;;;;;8.47;4.47;;;6.80;99.70;;;;;;5050471;28;20455;-71
2021/03/17 10:05:32;;;;;;;6.00;4.00;;;7.20;99.70;;;;;;5050177;28;20993;-72
2021/03/17 10:07:59;;;;;;;7.30;4.00;;;8.00;99.40;;;;;;5048913;28;20470;-72
2021/03/17 10:10:25;;;;;;;6.40;4.10;;;7.90;99.70;;;;;;5049771;28;20842;-70
2021/03/17 10:12:51;;;;;;;8.80;4.07;;;8.20;99.70;;;;;;5049942;28;20455;-70
2021/03/17 10:15:21;;;;;;;6.30;3.60;;;8.60;99.70;;;;;;5048250;28;20682;-71
2021/03/17 10:17:50;;;;;;;6.73;3.87;;;7.90;99.30;;;;;;5050034;28;20479;-70
2021/03/17 10:20:18;;;;;;;7.63;4.30;;;7.70;99.70;;;;;;5049359;28;20992;-69
2021/03/17 10:22:46;;;;;;;9.10;4.27;;;7.40;99.70;;;;;;5050548;28;20953;-70
2021/03/17 10:25:15;;;;;;;6.37;3.73;;;7.30;99.70;;;;;;5044769;28;20483;-72
2021/03/17 10:27:44;;;;;;;6.70;3.80;;;7.00;98.50;;;;;;5037239;28;20840;-69
2021/03/17 10:30:13;;;;;;;10.87;4.93;;;6.90;99.70;;;;;;5048748;28;20860;-71
2021/03/17 10:32:40;;;;;;;12.47;6.33;;;6.80;99.70;;;;;;5049333;28;20452;-72
2021/03/17 10:35:10;;;;;;;10.47;5.37;;;6.80;99.70;;;;;;5045797;28;20815;-72
2021/03/17 10:37:37;;;;;;;112.40;37.17;;;6.70;99.70;;;;;;5043715;28;20517;-72
2021/03/17 10:40:09;;;;;;;14.40;7.40;;;6.60;99.70;;;;;;5045636;28;20447;-71
2021/03/17 10:42:42;;;;;;;11.67;5.60;;;6.40;99.70;;;;;;5049366;28;20431;-71
2021/03/17 10:45:10;;;;;;;8.17;4.40;;;6.30;99.70;;;;;;5039677;28;20997;-72
2021/03/17 10:47:39;;;;;;;7.00;4.07;;;6.20;99.70;;;;;;5049037;28;20436;-71
2021/03/17 10:50:07;;;;;;;11.83;4.77;;;6.00;99.70;;;;;;5049190;28;20443;-72
2021/03/17 10:52:36;;;;;;;10.10;5.00;;;5.70;99.70;;;;;;5047772;28;20448;-71
2021/03/17 10:55:13;;;;;;;11.30;5.07;;;5.50;99.70;;;;;;5046046;28;20850;-72
2021/03/17 10:57:40;;;;;;;12.70;5.50;;;5.60;99.70;;;;;;5047053;28;20533;-72
2021/03/17 11:00:15;;;;;;;9.80;5.47;;;5.60;99.70;;;;;;5039969;28;20502;-72
2021/03/17 11:02:42;;;;;;;11.73;5.80;;;5.50;99.70;;;;;;5046788;28;20451;-72
2021/03/17 11:05:17;;;;;;;11.77;5.60;;;5.60;99.70;;;;;;5038283;28;20475;-72
2021/03/17 11:08:11;;;;;;;11.03;4.90;;;5.80;99.70;;;;;;5039849;28;21002;-72
2021/03/17 11:10:58;;;;;;;10.87;5.30;;;6.10;99.70;;;;;;5047079;28;20436;-72
2021/03/17 11:13:49;;;;;;;12.50;5.30;;;6.20;99.70;;;;;;5047466;28;20439;-71
2021/03/17 11:16:35;;;;;;;10.90;5.10;;;6.00;99.70;;;;;;5039666;28;20476;-71
2021/03/17 11:19:03;;;;;;;9.30;4.80;;;6.20;99.70;;;;;;5041273;28;20447;-72
2021/03/17 11:21:30;;;;;;;10.67;5.10;;;6.00;99.70;;;;;;5048837;28;20447;-72
2021/03/17 11:23:59;;;;;;;10.33;5.03;;;5.80;99.70;;;;;;5045556;28;20673;-71
2021/03/17 11:26:29;;;;;;;9.17;4.30;;;5.60;99.70;;;;;;5038823;28;20531;-72
2021/03/17 11:28:57;;;;;;;9.77;4.90;;;5.60;99.70;;;;;;5045424;28;21092;-72
2021/03/17 11:31:27;;;;;;;9.00;3.87;;;5.60;99.70;;;;;;5047440;28;20529;-72
2021/03/17 11:33:54;;;;;;;13.60;4.37;;;5.40;99.70;;;;;;5044853;28;20464;-71
2021/03/17 11:36:21;;;;;;;8.97;4.27;;;5.40;99.70;;;;;;5049731;28;20536;-71
2021/03/17 11:38:47;;;;;;;8.27;4.20;;;5.30;99.70;;;;;;5039470;28;20454;-72
2021/03/17 11:41:15;;;;;;;12.47;5.10;;;5.40;99.70;;;;;;5045007;28;20455;-71
2021/03/17 11:43:41;;;;;;;11.73;5.10;;;5.40;99.70;;;;;;5049122;28;20479;-71
2021/03/17 11:46:08;;;;;;;8.70;4.40;;;5.40;99.70;;;;;;5040646;28;20440;-71
2021/03/17 11:48:35;;;;;;;11.50;5.27;;;5.30;99.70;;;;;;5040033;28;20494;-71
2021/03/17 11:51:05;;;;;;;10.67;5.20;;;5.40;99.70;;;;;;5039611;28;20494;-71
2021/03/17 11:53:33;;;;;;;11.30;4.90;;;5.30;99.70;;;;;;5039621;28;20453;-71
2021/03/17 11:56:00;;;;;;;11.20;5.07;;;5.40;99.70;;;;;;5041690;28;20444;-72
2021/03/17 11:58:27;;;;;;;13.40;5.40;;;5.40;99.70;;;;;;5036358;22;20575;-70
2021/03/17 12:00:54;;;;;;;8.80;4.70;;;5.50;99.70;;;;;;5003130;28;20959;-69
2021/03/17 12:03:20;;;;;;;8.97;4.63;;;5.50;99.70;;;;;;5004987;28;21095;-70
2021/03/17 12:05:47;;;;;;;9.27;4.57;;;5.40;99.70;;;;;;5004808;28;20454;-68
2021/03/17 12:08:15;;;;;;;11.00;5.20;;;5.30;99.70;;;;;;5007400;28;20898;-68
2021/03/17 12:10:41;;;;;;;11.13;5.40;;;5.10;99.70;;;;;;4999553;28;20453;-70
2021/03/17 12:13:07;;;;;;;11.03;5.20;;;5.20;99.70;;;;;;4989304;28;20454;-70
2021/03/17 12:15:35;;;;;;;11.17;5.40;;;5.30;99.70;;;;;;4993428;28;20445;-71
2021/03/17 12:18:03;;;;;;;11.17;5.00;;;5.30;99.70;;;;;;4990562;28;21049;-72
2021/03/17 12:20:30;;;;;;;13.63;5.30;;;5.20;99.70;;;;;;4991514;28;20446;-70
2021/03/17 12:22:57;;;;;;;11.20;5.10;;;5.20;99.70;;;;;;4995491;28;20855;-71
2021/03/17 12:25:23;;;;;;;12.00;6.20;;;4.80;99.70;;;;;;4997835;28;20519;-70
2021/03/17 12:27:50;;;;;;;13.03;6.40;;;4.80;99.70;;;;;;4994649;28;20474;-71
2021/03/17 12:30:18;;;;;;;17.97;9.00;;;4.80;99.70;;;;;;5002338;28;20456;-71
2021/03/17 12:32:46;;;;;;;18.50;9.43;;;4.60;99.70;;;;;;4992625;28;20457;-71
2021/03/17 12:35:14;;;;;;;18.07;8.80;;;4.30;99.70;;;;;;4989543;28;20450;-70
2021/03/17 12:37:42;;;;;;;18.00;8.33;;;4.20;99.70;;;;;;5004627;28;20489;-70
2021/03/17 12:40:10;;;;;;;17.17;6.77;;;4.40;99.70;;;;;;5004212;28;20805;-70
2021/03/17 12:42:36;;;;;;;18.87;8.40;;;4.50;99.70;;;;;;5006602;28;20827;-71
2021/03/17 12:45:04;;;;;;;19.17;7.00;;;4.40;99.70;;;;;;4995206;28;20485;-70
2021/03/17 12:47:30;;;;;;;14.30;7.03;;;4.40;99.70;;;;;;5006527;28;20458;-70
2021/03/17 12:49:57;;;;;;;16.70;6.93;;;4.30;99.70;;;;;;5006564;28;20449;-71
2021/03/17 12:52:23;;;;;;;18.70;7.70;;;4.30;99.70;;;;;;4987802;28;20612;-70
2021/03/17 12:54:50;;;;;;;17.10;7.43;;;4.30;99.70;;;;;;4988849;28;20497;-71
2021/03/17 12:57:16;;;;;;;21.23;7.70;;;4.30;99.70;;;;;;5007001;28;20485;-71